LiveATC.Net - Listen to live air traffic control over the Internet!


ICAO: SUAA  IATA:   Airport: Angel S. Adami Airport
City: Montevideo
Country: Uruguay   Continent: South America
SUAA METAR Weather: SUAA 051700Z 12009KT 9999 SCT015 OVC100 21/16 Q1020
SUAA Flight Activity (FlightAware)

SUAA Tower
Feed Status: UP   Listeners: 2
Listen in your browser - HTML5 player (in browser, HTML5)
Click here to listen with your own player (launches your MP3 player)
Archive Access: SUAA Tower
FacilityFrequency
Adami Tower118.400
Adami Tower (backup)122.100
Emergency/Guard121.500
Feed provided by:

Volemos.org

Aviación Uruguaya - Volemos.com.uy


NOTICE

Unauthorized use prohibited. See LiveATC.net Terms of Service


Airport/ARTCC Code
Frequency Search
(e.g., 124.400, 128.75)
Site-wide search
 


Browse Feeds
Top 50 Feeds
HF Oceanic Feeds
Coverage Map
Bad Weather Areas

LiveATC FAQ
Offer LiveATC feed
Contact LiveATC.net
Press Inquiries

LiveATC on iPhone
LiveATC on Android

Windows Phone
Windows 8/10

LiveATC Mobile
(Mobile browser)

ATC Audio Archives
Interesting Recordings

LiveATC Forums


Home Page
About LiveATC.net
Make a Donation
Terms of Use
Privacy Policy

Canadian Air Freqs

AIRMETs/SIGMETs

FAA Airport Status
NAS Status
Arrival Demand


Server Software By:
Icecast.org
Liquidsoap